createdAt,value
2023-05-19T00:01:01.958Z,20.66
2023-05-19T00:04:24.948Z,20.53
2023-05-19T00:07:48.920Z,20.81
2023-05-19T00:11:10.964Z,20.99
2023-05-19T00:14:32.947Z,20.73
2023-05-19T00:17:56.008Z,21.11
2023-05-19T00:21:17.927Z,21.23
2023-05-19T00:24:39.945Z,20.46
2023-05-19T00:28:02.963Z,20.20
2023-05-19T00:31:25.035Z,20.25
2023-05-19T00:34:47.985Z,20.72
2023-05-19T00:38:11.940Z,20.62
2023-05-19T00:41:34.985Z,20.48
2023-05-19T00:44:56.953Z,21.09
2023-05-19T00:48:20.964Z,20.94
2023-05-19T00:51:42.957Z,21.37
2023-05-19T00:55:05.957Z,20.93
2023-05-19T00:58:31.983Z,20.15
2023-05-19T01:01:56.947Z,20.78
2023-05-19T01:05:18.975Z,21.91
2023-05-19T01:08:43.010Z,22.61
2023-05-19T01:12:05.930Z,21.96
2023-05-19T01:15:30.001Z,22.11
2023-05-19T01:18:56.974Z,21.48
2023-05-19T01:22:21.091Z,21.80
2023-05-19T01:25:47.959Z,23.11
2023-05-19T01:29:27.992Z,21.47
2023-05-19T01:32:50.966Z,21.92
2023-05-19T01:36:13.034Z,22.39
2023-05-19T01:39:37.003Z,21.75
2023-05-19T01:42:59.033Z,21.36
2023-05-19T01:46:22.133Z,22.43
2023-05-19T01:49:44.028Z,22.82
2023-05-19T01:53:06.997Z,22.19
2023-05-19T01:56:30.043Z,20.91
2023-05-19T01:59:55.967Z,21.55
2023-05-19T02:03:40.026Z,21.41
2023-05-19T02:07:02.827Z,21.09
2023-05-19T02:10:32.221Z,20.41
2023-05-19T02:13:58.993Z,20.70
2023-05-19T02:17:22.116Z,20.31
2023-05-19T02:20:47.016Z,20.27
2023-05-19T02:24:09.093Z,20.93
2023-05-19T02:27:31.017Z,20.91
2023-05-19T02:30:54.015Z,21.45
2023-05-19T02:34:17.020Z,20.69
2023-05-19T02:37:41.021Z,20.24
2023-05-19T02:41:07.045Z,20.22
2023-05-19T02:44:29.983Z,20.78
2023-05-19T02:47:52.069Z,20.63
2023-05-19T02:51:14.015Z,19.96
2023-05-19T02:54:36.042Z,19.98
2023-05-19T02:57:58.015Z,19.96
2023-05-19T03:01:20.007Z,20.01
2023-05-19T03:04:50.021Z,20.50
2023-05-19T03:08:06.675Z,20.14
2023-05-19T03:11:25.041Z,19.69
2023-05-19T03:14:47.019Z,19.75
2023-05-19T03:18:13.100Z,20.14
2023-05-19T03:21:34.992Z,20.14
2023-05-19T03:24:59.074Z,20.16
2023-05-19T03:28:21.056Z,20.26
2023-05-19T03:31:45.060Z,20.35
2023-05-19T03:35:08.019Z,20.12
2023-05-19T03:38:31.065Z,20.26
2023-05-19T03:41:55.077Z,19.81
2023-05-19T03:45:18.041Z,20.07
2023-05-19T03:48:42.107Z,19.85
2023-05-19T03:52:39.041Z,19.95
2023-05-19T03:56:05.044Z,20.45
2023-05-19T03:59:27.052Z,20.53
2023-05-19T04:02:50.122Z,20.80
2023-05-19T04:06:12.070Z,20.73
2023-05-19T04:09:28.685Z,20.33
2023-05-19T04:12:47.103Z,20.18
2023-05-19T04:16:10.104Z,20.02
2023-05-19T04:19:33.066Z,19.80
2023-05-19T04:22:55.061Z,20.03
2023-05-19T04:26:17.173Z,19.82
2023-05-19T04:29:42.100Z,19.86
2023-05-19T04:33:06.075Z,19.80
2023-05-19T04:36:30.060Z,19.67
2023-05-19T04:39:54.082Z,19.61
2023-05-19T04:43:19.048Z,19.46
2023-05-19T04:46:43.125Z,19.40
2023-05-19T04:50:09.077Z,19.37
2023-05-19T04:53:34.075Z,19.13
2023-05-19T04:56:59.107Z,19.00
2023-05-19T05:00:27.070Z,18.96
2023-05-19T05:03:53.126Z,18.90
2023-05-19T05:07:15.026Z,18.84
2023-05-19T05:10:39.111Z,18.77
2023-05-19T05:14:06.060Z,18.76
2023-05-19T05:17:29.113Z,18.70
2023-05-19T05:20:53.047Z,18.66
2023-05-19T05:24:16.103Z,18.54
2023-05-19T05:27:43.048Z,18.42
2023-05-19T05:31:06.124Z,18.24
2023-05-19T05:34:30.058Z,18.32
2023-05-19T05:37:54.126Z,18.15
2023-05-19T05:41:18.068Z,18.07
2023-05-19T05:44:44.126Z,18.02
2023-05-19T05:48:07.156Z,17.91
2023-05-19T05:51:30.118Z,17.83
2023-05-19T05:54:53.074Z,17.81
2023-05-19T05:58:19.106Z,17.78
2023-05-19T06:01:46.074Z,17.68
2023-05-19T06:05:10.158Z,17.56
2023-05-19T06:08:36.310Z,17.62
2023-05-19T06:12:00.133Z,17.61
2023-05-19T06:15:29.114Z,17.53
2023-05-19T06:18:57.115Z,17.45
2023-05-19T06:22:20.092Z,17.38
2023-05-19T06:25:44.143Z,17.36
2023-05-19T06:29:07.111Z,17.33
2023-05-19T06:32:31.155Z,17.26
2023-05-19T06:35:56.120Z,17.30
2023-05-19T06:39:19.174Z,17.23
2023-05-19T06:42:41.256Z,17.28
2023-05-19T06:46:09.113Z,17.27
2023-05-19T06:49:37.144Z,17.19
2023-05-19T06:53:00.103Z,17.15
2023-05-19T06:56:23.166Z,17.14
2023-05-19T06:59:49.127Z,17.07
2023-05-19T07:03:13.277Z,17.12
2023-05-19T07:06:36.090Z,17.16
2023-05-19T07:09:59.143Z,17.22
2023-05-19T07:13:16.757Z,17.03
2023-05-19T07:16:34.185Z,16.94
2023-05-19T07:19:57.153Z,16.95
2023-05-19T07:23:20.150Z,16.87
2023-05-19T07:26:42.153Z,16.82
2023-05-19T07:30:05.185Z,16.79
2023-05-19T07:33:27.205Z,16.71
2023-05-19T07:36:49.178Z,16.70
2023-05-19T07:40:11.130Z,16.63
2023-05-19T07:43:34.165Z,16.53
2023-05-19T07:46:56.152Z,16.59
2023-05-19T07:50:19.168Z,16.54
2023-05-19T07:53:41.152Z,16.48
2023-05-19T07:57:04.173Z,16.51
2023-05-19T08:00:26.132Z,16.50
2023-05-19T08:03:49.260Z,16.43
2023-05-19T08:07:12.176Z,16.52
2023-05-19T08:10:35.346Z,16.54
2023-05-19T08:13:52.326Z,16.47
2023-05-19T08:17:10.165Z,16.42
2023-05-19T08:20:32.489Z,16.41
2023-05-19T08:23:56.147Z,16.42
2023-05-19T08:27:18.205Z,16.39
2023-05-19T08:30:41.157Z,16.44
2023-05-19T08:34:03.181Z,16.49
2023-05-19T08:37:25.162Z,16.42
2023-05-19T08:40:47.188Z,16.36
2023-05-19T08:44:09.156Z,16.42
2023-05-19T08:47:31.216Z,16.29
2023-05-19T08:50:55.217Z,16.22
2023-05-19T08:54:28.152Z,16.08
2023-05-19T08:57:50.219Z,16.02
2023-05-19T09:01:12.211Z,15.95
2023-05-19T09:04:36.281Z,15.78
2023-05-19T09:07:59.152Z,15.70
2023-05-19T09:11:21.213Z,15.66
2023-05-19T09:14:36.773Z,15.65
2023-05-19T09:17:56.288Z,15.66
2023-05-19T09:21:19.173Z,15.54
2023-05-19T09:24:41.221Z,15.51
2023-05-19T09:28:03.197Z,15.41
2023-05-19T09:31:25.204Z,15.39
2023-05-19T09:34:47.189Z,15.38
2023-05-19T09:38:10.194Z,15.40
2023-05-19T09:41:34.225Z,15.54
2023-05-19T09:44:56.178Z,15.44
2023-05-19T09:48:21.197Z,15.39
2023-05-19T09:51:44.211Z,15.33
2023-05-19T09:55:08.201Z,15.43
2023-05-19T09:58:32.180Z,15.30
2023-05-19T10:01:55.207Z,15.32
2023-05-19T10:05:17.447Z,15.30
2023-05-19T10:08:42.203Z,15.22
2023-05-19T10:12:10.209Z,15.23
2023-05-19T10:15:26.832Z,15.23
2023-05-19T10:18:44.278Z,15.25
2023-05-19T10:22:07.207Z,15.26
2023-05-19T10:25:29.220Z,15.21
2023-05-19T10:28:53.241Z,15.25
2023-05-19T10:32:16.207Z,15.24
2023-05-19T10:35:38.433Z,15.36
2023-05-19T10:39:08.245Z,15.37
2023-05-19T10:42:30.257Z,15.29
2023-05-19T10:46:03.164Z,15.26
2023-05-19T10:49:25.244Z,15.22
2023-05-19T10:52:48.229Z,15.18
2023-05-19T10:56:15.256Z,15.22
2023-05-19T10:59:48.178Z,15.17
2023-05-19T11:03:31.260Z,15.25
2023-05-19T11:06:54.255Z,15.30
2023-05-19T11:10:21.596Z,15.32
2023-05-19T11:13:44.250Z,15.36
2023-05-19T11:17:07.383Z,15.29
2023-05-19T11:20:42.267Z,15.31
2023-05-19T11:24:05.398Z,15.33
2023-05-19T11:27:33.231Z,15.28
2023-05-19T11:31:00.254Z,15.25
2023-05-19T11:34:22.245Z,15.18
2023-05-19T11:37:48.365Z,15.19
2023-05-19T11:41:10.224Z,15.08
2023-05-19T11:44:33.254Z,15.15
2023-05-19T11:51:24.362Z,15.42
2023-05-19T11:54:52.246Z,15.38
2023-05-19T11:58:17.479Z,15.31
2023-05-19T12:01:40.231Z,15.24
2023-05-19T12:05:03.384Z,15.28
2023-05-19T12:08:27.272Z,15.30
2023-05-19T12:11:50.365Z,15.23
2023-05-19T12:15:12.228Z,15.14
2023-05-19T12:18:35.260Z,15.21
2023-05-19T12:22:08.222Z,15.23
2023-05-19T12:25:24.276Z,15.21
2023-05-19T12:28:49.255Z,15.24
2023-05-19T12:32:11.292Z,15.17
2023-05-19T12:35:34.382Z,15.17
2023-05-19T12:38:57.253Z,15.22
2023-05-19T12:42:25.286Z,15.18
2023-05-19T12:45:51.284Z,15.21
2023-05-19T12:49:14.264Z,15.17
2023-05-19T12:52:37.247Z,15.03
2023-05-19T12:56:01.263Z,14.94
2023-05-19T12:59:37.425Z,14.94
2023-05-19T13:03:13.370Z,14.75
2023-05-19T13:06:35.254Z,14.62
2023-05-19T13:09:58.436Z,14.54
2023-05-19T13:13:22.290Z,14.51
2023-05-19T13:16:46.334Z,14.50
2023-05-19T13:20:01.879Z,14.46
2023-05-19T13:23:27.294Z,14.50
2023-05-19T13:26:52.691Z,14.61
2023-05-19T13:30:17.313Z,14.58
2023-05-19T13:33:39.294Z,14.53
2023-05-19T13:37:03.354Z,14.54
2023-05-19T13:40:28.353Z,14.59
2023-05-19T13:43:50.423Z,14.69
2023-05-19T13:47:12.306Z,14.69
2023-05-19T13:50:35.306Z,14.69
2023-05-19T13:53:59.293Z,14.65
2023-05-19T13:57:23.325Z,14.70
2023-05-19T14:00:46.322Z,14.76
2023-05-19T14:04:09.528Z,14.77
2023-05-19T14:07:33.332Z,14.76
2023-05-19T14:10:57.305Z,14.73
2023-05-19T14:14:21.316Z,14.90
2023-05-19T14:17:44.403Z,14.92
2023-05-19T14:21:08.291Z,14.97
2023-05-19T14:24:31.316Z,15.09
2023-05-19T14:27:53.312Z,15.22
2023-05-19T14:31:15.312Z,15.31
2023-05-19T14:34:37.324Z,15.30
2023-05-19T14:38:00.299Z,15.25
2023-05-19T14:41:22.330Z,15.24
2023-05-19T14:44:47.325Z,15.10
2023-05-19T14:48:10.353Z,14.97
2023-05-19T14:51:33.316Z,15.01
2023-05-19T14:54:57.319Z,15.04
2023-05-19T14:58:28.861Z,15.02
2023-05-19T15:01:52.360Z,14.89
2023-05-19T15:05:15.356Z,14.90
2023-05-19T15:08:38.362Z,14.87
2023-05-19T15:12:01.441Z,14.96
2023-05-19T15:15:26.352Z,15.12
2023-05-19T15:18:51.343Z,15.36
2023-05-19T15:22:14.479Z,15.69
2023-05-19T15:25:38.311Z,15.79
2023-05-19T15:29:00.356Z,15.83
2023-05-19T15:32:24.330Z,15.85
2023-05-19T15:35:47.466Z,15.76
2023-05-19T15:39:11.307Z,15.75
2023-05-19T15:42:34.333Z,15.70
2023-05-19T15:46:00.352Z,15.69
2023-05-19T15:49:22.356Z,15.73
2023-05-19T15:52:45.318Z,15.76
2023-05-19T15:56:07.370Z,15.86
2023-05-19T15:59:30.345Z,15.92
2023-05-19T16:02:52.496Z,15.83
2023-05-19T16:06:14.357Z,15.80
2023-05-19T16:09:36.317Z,15.81
2023-05-19T16:12:58.348Z,15.73
2023-05-19T16:16:20.367Z,15.73
2023-05-19T16:19:43.369Z,15.69
2023-05-19T16:23:05.378Z,15.65
2023-05-19T16:26:29.346Z,15.67
2023-05-19T16:29:51.346Z,15.60
2023-05-19T16:33:14.376Z,15.56
2023-05-19T16:36:37.330Z,15.58
2023-05-19T16:39:59.404Z,15.48
2023-05-19T16:43:22.327Z,15.38
2023-05-19T16:46:45.368Z,15.39
2023-05-19T16:50:07.369Z,15.35
2023-05-19T16:53:29.384Z,15.30
2023-05-19T16:56:51.345Z,15.26
2023-05-19T17:00:14.399Z,15.11
2023-05-19T17:03:39.453Z,15.05
2023-05-19T17:06:55.394Z,14.97
2023-05-19T17:10:19.361Z,14.92
2023-05-19T17:13:44.527Z,14.93
2023-05-19T17:17:08.412Z,14.83
2023-05-19T17:20:31.609Z,14.88
2023-05-19T17:23:55.362Z,14.87
2023-05-19T17:27:18.368Z,14.87
2023-05-19T17:30:40.379Z,14.87
2023-05-19T17:34:02.397Z,14.91
2023-05-19T17:37:27.404Z,14.89
2023-05-19T17:40:49.422Z,14.90
2023-05-19T17:44:14.389Z,14.91
2023-05-19T17:47:36.377Z,15.00
2023-05-19T17:51:03.143Z,15.04
2023-05-19T17:54:26.382Z,15.13
2023-05-19T17:57:49.397Z,15.11
2023-05-19T18:01:12.480Z,15.12
2023-05-19T18:04:34.406Z,15.17
2023-05-19T18:07:56.352Z,15.18
2023-05-19T18:11:21.453Z,15.35
2023-05-19T18:14:44.396Z,15.42
2023-05-19T18:18:06.422Z,15.49
2023-05-19T18:21:29.385Z,15.59
2023-05-19T18:24:51.426Z,15.72
2023-05-19T18:28:14.365Z,15.82
2023-05-19T18:31:36.502Z,15.88
2023-05-19T18:34:58.387Z,15.94
2023-05-19T18:38:20.400Z,16.04
2023-05-19T18:41:45.391Z,16.08
2023-05-19T18:45:08.427Z,16.06
2023-05-19T18:48:31.383Z,16.06
2023-05-19T18:51:56.429Z,16.11
2023-05-19T18:55:18.398Z,16.05
2023-05-19T18:58:40.399Z,16.18
2023-05-19T19:02:03.425Z,16.16
2023-05-19T19:05:26.404Z,16.16
2023-05-19T19:08:49.396Z,16.16
2023-05-19T19:12:11.438Z,16.23
2023-05-19T19:15:36.392Z,16.31
2023-05-19T19:18:58.519Z,16.31
2023-05-19T19:22:21.445Z,16.36
2023-05-19T19:25:44.476Z,16.28
2023-05-19T19:29:07.429Z,16.18
2023-05-19T19:32:31.596Z,16.15
2023-05-19T19:35:54.397Z,16.11
2023-05-19T19:39:17.427Z,16.12
2023-05-19T19:42:39.420Z,16.14
2023-05-19T19:46:01.493Z,16.11
2023-05-19T19:49:23.419Z,16.04
2023-05-19T19:52:46.470Z,16.06
2023-05-19T19:56:15.437Z,15.99
2023-05-19T19:59:39.467Z,15.95
2023-05-19T20:03:05.030Z,15.90
2023-05-19T20:06:30.432Z,15.94
2023-05-19T20:09:52.434Z,16.03
2023-05-19T20:13:15.440Z,16.08
2023-05-19T20:16:37.451Z,16.13
2023-05-19T20:19:59.455Z,16.09
2023-05-19T20:23:22.436Z,16.09
2023-05-19T20:26:44.436Z,16.05
2023-05-19T20:30:07.428Z,15.95
2023-05-19T20:33:29.502Z,15.91
2023-05-19T20:36:51.443Z,15.83
2023-05-19T20:40:13.446Z,15.77
2023-05-19T20:43:35.412Z,15.81
2023-05-19T20:46:57.472Z,15.97
2023-05-19T20:50:19.453Z,16.40
2023-05-19T20:53:41.499Z,16.47
2023-05-19T20:57:04.446Z,16.19
2023-05-19T21:00:27.876Z,16.20
2023-05-19T21:03:51.447Z,16.33
2023-05-19T21:07:13.561Z,17.18
2023-05-19T21:10:36.458Z,16.71
2023-05-19T21:13:59.502Z,16.51
2023-05-19T21:17:21.449Z,16.44
2023-05-19T21:20:43.512Z,16.44
2023-05-19T21:24:05.460Z,16.30
2023-05-19T21:27:27.508Z,16.20
2023-05-19T21:30:51.488Z,16.10
2023-05-19T21:34:15.479Z,16.03
2023-05-19T21:37:37.449Z,16.14
2023-05-19T21:41:01.484Z,16.29
2023-05-19T21:44:23.492Z,16.27
2023-05-19T21:47:45.511Z,16.11
2023-05-19T21:51:09.483Z,16.07
2023-05-19T21:54:31.457Z,16.17
2023-05-19T21:57:53.477Z,16.09
2023-05-19T22:01:16.477Z,16.18
2023-05-19T22:04:41.477Z,16.14
2023-05-19T22:08:03.518Z,16.10
2023-05-19T22:11:26.435Z,16.26
2023-05-19T22:14:50.498Z,16.52
2023-05-19T22:18:13.498Z,17.04
2023-05-19T22:21:35.518Z,17.23
2023-05-19T22:24:58.548Z,17.06
2023-05-19T22:28:15.056Z,16.85
2023-05-19T22:31:33.541Z,16.88
2023-05-19T22:34:56.502Z,16.95
2023-05-19T22:38:19.535Z,17.05
2023-05-19T22:41:42.520Z,16.94
2023-05-19T22:45:04.665Z,16.99
2023-05-19T22:48:27.490Z,17.41
2023-05-19T22:51:49.542Z,17.81
2023-05-19T22:55:11.520Z,17.59
2023-05-19T22:58:33.541Z,17.54
2023-05-19T23:01:55.504Z,17.48
2023-05-19T23:05:17.508Z,17.52
2023-05-19T23:08:40.500Z,17.75
2023-05-19T23:12:02.540Z,17.77
2023-05-19T23:15:25.464Z,17.90
2023-05-19T23:18:47.568Z,17.94
2023-05-19T23:22:11.178Z,18.05
2023-05-19T23:25:33.723Z,18.21
2023-05-19T23:28:50.159Z,18.41
2023-05-19T23:32:07.540Z,18.41
2023-05-19T23:35:33.733Z,18.15
2023-05-19T23:38:57.552Z,18.02
2023-05-19T23:42:21.495Z,18.13
2023-05-19T23:45:44.546Z,18.76
2023-05-19T23:49:06.522Z,19.44
2023-05-19T23:52:30.561Z,18.41
2023-05-19T23:55:52.609Z,18.33
2023-05-19T23:59:16.553Z,18.14
